Flight Track Log - Related Links

Times and Time Zones

All times are in EST time to prevent confusion due to time zone crossing. See the EJM826 flight status page for this flight to view local times or setup timezone preferences in your user account.


Time Position Orientation Groundspeed Altitude Reporting Facility
EST Latitude Longitude Course Direction KTS MPH feet Rate Location/Type
Thu 04:01:31 PM 29.6308 -95.2847 144° Southeast 133 153 700  Level Houston Center
Thu 04:01:43 PM 29.6242 -95.2792 144° Southeast 151 174 1,100 2,516 Climbing Houston Center
Thu 04:02:33 PM 29.5875 -95.2469 143° Southeast 208 239 3,300 2,516 Climbing Houston Center
Thu 04:02:45 PM 29.5842 -95.2397 118° Southeast 198 228 3,700 3,273 Climbing Houston Center
Thu 04:03:39 PM 29.5858 -95.1631 89° East 257 296 6,900 3,000 Climbing Houston Center
Thu 04:03:47 PM 29.5847 -95.1678 255° West 247 284 6,800 2,571 Descending Houston Center
Thu 04:04:49 PM 29.6031 -95.0697 78° East 269 310 9,900 2,806 Climbing Houston Center
Thu 04:05:51 PM 29.6172 -94.9758 80° East 296 341 12,600 2,352 Climbing Houston Center
Thu 04:06:54 PM 29.6342 -94.8772 79° East 313 360 14,800 2,064 Climbing Houston Center
Thu 04:07:56 PM 29.6514 -94.7744 79° East 325 374 16,900 1,935 Climbing Houston Center
Thu 04:08:58 PM 29.6731 -94.6403 79° East 353 406 18,800 1,742 Climbing Houston Center
Thu 04:10:00 PM 29.6925 -94.5189 80° East 381 438 20,500 1,500 Climbing Houston Center
Thu 04:11:02 PM 29.7119 -94.3942 80° East 395 455 21,900 1,500 Climbing Houston Center
Thu 04:12:04 PM 29.7283 -94.2644 82° East 407 468 23,600 1,728 Climbing Houston Center
Thu 04:13:07 PM 29.7469 -94.1175 82° East 419 482 25,500 1,584 Climbing Houston Center
Thu 04:14:09 PM 29.7639 -93.9839 82° East 423 487 26,900 726 Climbing Houston Center
Thu 04:15:11 PM 29.7819 -93.8431 82° East 445 512 27,000 48 Climbing Houston Center
Thu 04:16:13 PM 29.8006 -93.6944 82° East 469 540 27,000  Level Houston Center
Thu 04:17:15 PM 29.8242 -93.5119 81° East 483 556 27,000  Level Houston Center
Thu 04:18:17 PM 29.8428 -93.3589 82° East 487 560 27,000  Level Houston Center
Thu 04:19:20 PM 29.8600 -93.2081 82° East 483 556 27,000  Level Houston Center
Thu 04:20:22 PM 29.8794 -93.0553 82° East 485 558 27,000  Level Houston Center
Thu 04:21:24 PM 29.8969 -92.9039 82° East 483 556 27,000  Level Houston Center
Thu 04:22:26 PM 29.9189 -92.7214 82° East 482 555 27,000  Level Houston Center
Thu 04:23:28 PM 29.9372 -92.5683 82° East 483 556 27,000  Level Houston Center
Thu 04:24:30 PM 29.9539 -92.4158 83° East 483 556 27,000  Level Houston Center
Thu 04:25:33 PM 29.9711 -92.2631 83° East 482 555 27,000  Level Houston Center
Thu 04:26:35 PM 29.9881 -92.1106 83° East 481 554 27,000  Level Houston Center
Thu 04:27:37 PM 30.0092 -91.9250 82° East 486 559 27,000 -1,210 Level Houston Center
Thu 04:28:39 PM 30.0275 -91.7689 82° East 490 564 24,500 -2,419 Descending Houston Center
Thu 04:29:41 PM 30.0464 -91.6128 82° East 499 574 22,000 -2,516 Descending Houston Center
Thu 04:30:43 PM 30.0617 -91.4567 84° East 495 570 19,300 -2,929 Descending Houston Center
Thu 04:31:05 PM 30.0703 -91.3792 83° East 483 556 17,900 -2,746 Descending Houston Center
Thu 04:31:42 PM 30.0828 -91.2875 81° East 468 539 16,600 -1,650 Descending Houston Center
Thu 04:31:45 PM 30.0781 -91.3078 255° West 478 550 16,800 -2,364 Climbing Houston Center
Thu 04:32:48 PM 30.0806 -91.1433 89° East 434 499 14,000 -2,491 Descending Houston Center
Thu 04:33:31 PM 30.0794 -91.0522 91° East 394 453 12,400 -2,226 Descending Houston Center
Thu 04:33:50 PM 30.0761 -91.0161 96° East 406 467 11,700 -2,262 Descending Houston Center
Thu 04:34:32 PM 30.0722 -90.9300 93° East 380 437 10,100 -1,839 Descending Houston Center
Thu 04:34:52 PM 30.0717 -90.8972 91° East 383 441 9,800 -1,164 Descending Houston Center
Thu 04:35:39 PM 30.0692 -90.8122 92° East 297 342 8,800 -1,355 Descending Houston Center
Thu 04:35:54 PM 30.0681 -90.7992 96° East 326 375 8,400 -2,000 Descending Houston Center
Thu 04:36:39 PM 30.0644 -90.7164 93° East 289 333 6,800 -1,935 Descending Houston Center
Thu 04:36:56 PM 30.0633 -90.7053 97° East 307 353 6,400 -1,967 Descending Houston Center
Thu 04:37:40 PM 30.0558 -90.6278 96° East 279 321 4,800 -2,032 Descending Houston Center
Thu 04:37:58 PM 30.0519 -90.5994 99° East 289 333 4,300 -787 Descending Houston Center
Thu 04:38:41 PM 30.0514 -90.5464 91° East 254 292 4,000 -387 Descending Houston Center
Thu 04:39:00 PM 30.0514 -90.5186 90° East 272 313 3,900 -716 Descending Houston Center
Thu 04:39:48 PM 30.0406 -90.4603 102° East 231 266 3,200 -1,048 Descending Houston Center
Thu 04:40:03 PM 30.0397 -90.4478 94° East 243 280 2,800 -778 Descending Houston Center
Thu 04:40:42 PM 30.0242 -90.3983 110° East 210 242 2,500 -677 Descending Houston Center
Thu 04:41:05 PM 30.0222 -90.3833 99° East 225 259 2,100 -1,059 Descending Houston Center
Thu 04:42:07 PM 30.0089 -90.3331 107° East 195 224 1,000 -914 Descending Houston Center
Thu 04:42:50 PM 30.0006 -90.3033 108° East 114 131 500 -677 Descending Houston Center
Thu 04:43:09 PM 30.0003 -90.2978 93° East 148 170 300 -632 Descending Houston Center
Thu 04:45:00 PM 29.9933 -90.2590 101° East  Level Estimated

Login

Don't have an account? Register now (free) for customized features, flight alerts, and more!